Time;durP1;ratioP1;P1;durP2;ratioP2;P2;SDS_P1;SDS_P2;PMS_P1;PMS_P2;Temp;Humidity;BMP_temperature;BMP_pressure;BME280_temperature;BME280_humidity;BME280_pressure;Samples;Min_cycle;Max_cycle;Signal;HPM_P1;HPM_P2
2022/01/19 00:01:36;;;;;;;9.60;4.32;;;;;;;;;;6184413;23;19997;-76
2022/01/19 00:04:02;;;;;;;8.88;4.05;;;;;;;;;;6184644;23;20410;-78
2022/01/19 00:06:29;;;;;;;8.48;3.85;;;;;;;;;;6184425;23;20083;-77
2022/01/19 00:08:55;;;;;;;9.52;3.55;;;;;;;;;;6184937;23;20009;-76
2022/01/19 00:11:22;;;;;;;10.32;5.18;;;;;;;;;;6158289;23;20016;-75
2022/01/19 00:13:49;;;;;;;6.95;3.75;;;;;;;;;;6184435;23;20468;-76
2022/01/19 00:16:16;;;;;;;10.77;4.03;;;;;;;;;;6184583;23;20011;-76
2022/01/19 00:18:42;;;;;;;9.43;3.88;;;;;;;;;;6184362;23;19997;-76
2022/01/19 00:21:08;;;;;;;13.13;5.30;;;;;;;;;;6184487;23;19997;-77
2022/01/19 00:23:37;;;;;;;11.68;4.82;;;;;;;;;;6184187;23;20001;-77
2022/01/19 00:26:03;;;;;;;8.07;4.10;;;;;;;;;;6184612;23;20005;-76
2022/01/19 00:28:29;;;;;;;9.93;5.05;;;;;;;;;;6184211;23;20027;-75
2022/01/19 00:30:56;;;;;;;10.55;4.63;;;;;;;;;;6184567;23;20012;-75
2022/01/19 00:33:23;;;;;;;11.73;5.57;;;;;;;;;;6184745;23;20056;-76
2022/01/19 00:35:50;;;;;;;9.43;4.40;;;;;;;;;;6184522;23;20084;-75
2022/01/19 00:38:16;;;;;;;9.57;4.78;;;;;;;;;;6184727;23;20009;-78
2022/01/19 00:40:42;;;;;;;9.13;4.63;;;;;;;;;;6168042;23;20020;-76
2022/01/19 00:43:08;;;;;;;7.43;3.55;;;;;;;;;;6154755;23;20452;-76
2022/01/19 00:45:35;;;;;;;12.15;5.95;;;;;;;;;;6154124;23;20002;-77
2022/01/19 00:48:01;;;;;;;11.18;5.00;;;;;;;;;;6154408;23;20008;-76
2022/01/19 00:50:28;;;;;;;9.27;4.28;;;;;;;;;;6154825;23;19997;-76
2022/01/19 00:52:55;;;;;;;11.85;4.95;;;;;;;;;;6154597;23;20080;-75
2022/01/19 00:55:22;;;;;;;11.68;5.18;;;;;;;;;;6128138;23;20085;-75
2022/01/19 00:57:49;;;;;;;10.65;4.70;;;;;;;;;;6154266;23;19998;-76
2022/01/19 01:00:20;;;;;;;10.95;4.78;;;;;;;;;;6154488;23;20005;-77
2022/01/19 01:02:47;;;;;;;9.70;5.63;;;;;;;;;;6154157;23;20002;-76
2022/01/19 01:05:13;;;;;;;10.73;5.05;;;;;;;;;;6154378;23;20382;-75
2022/01/19 01:07:40;;;;;;;11.43;4.38;;;;;;;;;;6154068;23;20005;-77
2022/01/19 01:10:10;;;;;;;13.00;6.32;;;;;;;;;;6154419;23;20442;-76
2022/01/19 01:15:30;;;;;;;12.50;6.30;;;;;;;;;;6164812;23;20017;-76
2022/01/19 01:20:30;;;;;;;18.75;5.97;;;;;;;;;;6165978;23;20037;-76
2022/01/19 01:22:56;;;;;;;12.38;5.93;;;;;;;;;;6156587;23;20021;-76
2022/01/19 01:25:23;;;;;;;11.05;5.25;;;;;;;;;;6156242;23;20144;-77
2022/01/19 01:27:52;;;;;;;13.32;5.53;;;;;;;;;;6156595;23;20010;-75
2022/01/19 01:30:19;;;;;;;13.82;5.20;;;;;;;;;;6155902;23;20006;-76
2022/01/19 01:32:46;;;;;;;11.73;5.88;;;;;;;;;;6156139;23;20005;-75
2022/01/19 01:35:12;;;;;;;9.93;4.47;;;;;;;;;;6155805;23;20013;-76
2022/01/19 01:37:38;;;;;;;14.35;4.95;;;;;;;;;;6156118;23;20012;-76
2022/01/19 01:40:07;;;;;;;9.27;4.38;;;;;;;;;;6138077;23;20019;-75
2022/01/19 01:42:34;;;;;;;9.05;4.63;;;;;;;;;;6185975;23;20008;-76
2022/01/19 01:45:01;;;;;;;7.40;4.05;;;;;;;;;;6186349;23;19997;-76
2022/01/19 01:47:28;;;;;;;9.88;4.63;;;;;;;;;;6185853;23;20072;-77
2022/01/19 01:55:14;;;;;;;9.65;4.20;;;;;;;;;;6185679;23;20062;-77
2022/01/19 01:57:43;;;;;;;7.45;4.30;;;;;;;;;;6185944;23;20425;-76
2022/01/19 02:00:10;;;;;;;11.65;4.53;;;;;;;;;;6185866;23;19993;-76
2022/01/19 02:02:37;;;;;;;8.30;3.22;;;;;;;;;;6186279;23;20440;-75
2022/01/19 02:05:03;;;;;;;7.15;2.80;;;;;;;;;;6185549;23;20024;-76
2022/01/19 02:07:42;;;;;;;8.40;3.72;;;;;;;;;;6185861;23;20004;-76
2022/01/19 02:10:27;;;;;;;6.35;3.03;;;;;;;;;;6186203;23;20426;-76
2022/01/19 02:23:51;;;;;;;7.88;3.10;;;;;;;;;;6175101;23;20015;-77
2022/01/19 02:26:50;;;;;;;6.53;3.45;;;;;;;;;;6185939;23;19997;-75
2022/01/19 02:40:18;;;;;;;10.52;3.72;;;;;;;;;;6184539;23;20020;-75
2022/01/19 02:50:59;;;;;;;;;;;;;;;;;;6185927;23;20024;-75
2022/01/19 02:53:26;;;;;;;9.07;4.07;;;;;;;;;;6185279;23;19904;-76
2022/01/19 02:55:54;;;;;;;8.13;3.33;;;;;;;;;;6185163;23;20005;-76
2022/01/19 02:58:24;;;;;;;5.47;3.22;;;;;;;;;;6185054;23;20001;-75
2022/01/19 03:09:04;;;;;;;9.35;3.28;;;;;;;;;;6185639;23;20459;-75
2022/01/19 03:11:32;;;;;;;9.75;3.28;;;;;;;;;;6185396;23;20008;-77
2022/01/19 03:13:58;;;;;;;10.48;4.10;;;;;;;;;;6184799;23;20016;-75
2022/01/19 03:16:24;;;;;;;10.52;5.13;;;;;;;;;;6185002;23;20075;-75
2022/01/19 03:18:53;;;;;;;12.35;4.82;;;;;;;;;;6184913;23;20051;-75
2022/01/19 03:21:19;;;;;;;10.73;4.72;;;;;;;;;;6185265;23;20005;-76
2022/01/19 03:23:48;;;;;;;11.40;4.68;;;;;;;;;;6184651;23;19997;-76
2022/01/19 03:26:14;;;;;;;10.70;5.55;;;;;;;;;;6185328;23;20075;-75
2022/01/19 03:28:40;;;;;;;9.45;4.53;;;;;;;;;;6184867;23;20079;-76
2022/01/19 03:31:06;;;;;;;14.25;4.43;;;;;;;;;;6185178;23;20337;-75
2022/01/19 03:33:32;;;;;;;11.05;4.85;;;;;;;;;;6185117;23;20024;-75
2022/01/19 03:35:59;;;;;;;10.00;4.30;;;;;;;;;;6185129;23;20063;-75
2022/01/19 03:38:25;;;;;;;11.35;4.32;;;;;;;;;;6184827;23;20310;-75
2022/01/19 03:40:51;;;;;;;9.25;5.57;;;;;;;;;;6166431;23;20009;-75
2022/01/19 03:43:20;;;;;;;9.63;4.28;;;;;;;;;;6155299;23;20413;-75
2022/01/19 03:45:52;;;;;;;11.77;5.60;;;;;;;;;;6154798;23;19994;-76
2022/01/19 03:48:45;;;;;;;9.57;4.78;;;;;;;;;;6155095;23;19997;-75
2022/01/19 03:51:05;;;;;;;7.65;4.78;;;;;;;;;;6153943;23;20096;-75
2022/01/19 03:53:32;;;;;;;12.98;6.00;;;;;;;;;;6155023;23;20001;-75
2022/01/19 03:55:58;;;;;;;9.38;4.32;;;;;;;;;;6154792;23;20067;-75
2022/01/19 03:58:24;;;;;;;8.68;7.05;;;;;;;;;;6154813;23;20002;-76
2022/01/19 04:00:55;;;;;;;9.90;4.80;;;;;;;;;;6155041;23;20002;-75
2022/01/19 04:03:25;;;;;;;11.73;7.00;;;;;;;;;;6154715;23;19997;-75
2022/01/19 04:08:36;;;;;;;16.60;9.43;;;;;;;;;;6154903;23;20013;-75
2022/01/19 04:11:04;;;;;;;12.98;8.40;;;;;;;;;;6154926;23;19997;-76
2022/01/19 04:13:44;;;;;;;13.68;8.20;;;;;;;;;;6154815;23;20073;-75
2022/01/19 04:16:13;;;;;;;16.80;8.77;;;;;;;;;;6154722;23;20005;-76
2022/01/19 04:18:39;;;;;;;12.65;7.20;;;;;;;;;;6154984;23;20461;-76
2022/01/19 04:21:10;;;;;;;8.05;4.82;;;;;;;;;;6154401;23;20008;-75
2022/01/19 04:23:36;;;;;;;12.40;5.43;;;;;;;;;;6154875;23;20005;-76
2022/01/19 04:26:03;;;;;;;8.57;4.20;;;;;;;;;;6154628;23;20060;-75
2022/01/19 04:28:30;;;;;;;16.67;7.55;;;;;;;;;;6154835;23;20009;-75
2022/01/19 04:30:56;;;;;;;17.10;9.30;;;;;;;;;;6154468;23;20012;-75
2022/01/19 04:33:25;;;;;;;21.83;10.55;;;;;;;;;;6154690;23;20092;-76
2022/01/19 04:35:54;;;;;;;17.40;9.35;;;;;;;;;;6154401;23;20325;-75
2022/01/19 04:54:06;;;;;;;10.40;4.20;;;;;;;;;;6154501;23;20017;-75
2022/01/19 05:01:39;;;;;;;8.27;3.90;;;;;;;;;;6154485;23;20060;-76
2022/01/19 05:05:32;;;;;;;23.15;10.98;;;;;;;;;;6147698;23;20009;-76
2022/01/19 05:08:09;;;;;;;62.17;28.60;;;;;;;;;;6154417;23;20028;-76
2022/01/19 05:15:53;;;;;;;14.10;5.40;;;;;;;;;;6154612;23;20016;-76
2022/01/19 05:18:19;;;;;;;8.38;4.38;;;;;;;;;;6154098;23;20010;-75
2022/01/19 05:20:46;;;;;;;9.38;4.65;;;;;;;;;;6154535;23;20005;-76
2022/01/19 05:23:12;;;;;;;10.27;5.00;;;;;;;;;;6154364;23;20001;-76
2022/01/19 05:25:41;;;;;;;12.15;5.68;;;;;;;;;;6154470;23;20441;-76
2022/01/19 05:28:07;;;;;;;10.27;4.20;;;;;;;;;;6154744;23;20087;-75
2022/01/19 05:30:33;;;;;;;9.32;4.13;;;;;;;;;;6154593;23;20056;-75
2022/01/19 05:33:00;;;;;;;6.68;3.90;;;;;;;;;;6154990;23;20040;-76
2022/01/19 05:35:27;;;;;;;9.40;4.38;;;;;;;;;;6153983;23;20001;-76
2022/01/19 05:37:53;;;;;;;5.97;3.95;;;;;;;;;;6154253;23;20093;-75
2022/01/19 05:40:20;;;;;;;8.95;5.57;;;;;;;;;;6153901;23;20020;-76
2022/01/19 05:42:48;;;;;;;11.10;5.45;;;;;;;;;;6154312;23;20001;-76
2022/01/19 05:45:14;;;;;;;11.70;6.05;;;;;;;;;;6154435;23;20036;-76
2022/01/19 05:47:40;;;;;;;14.05;6.63;;;;;;;;;;6154375;23;20005;-75
2022/01/19 05:50:10;;;;;;;13.02;7.72;;;;;;;;;;6127791;23;20077;-76
2022/01/19 05:52:36;;;;;;;14.50;7.28;;;;;;;;;;6153712;23;20449;-76
2022/01/19 05:55:04;;;;;;;15.10;7.35;;;;;;;;;;6154155;23;20001;-75
2022/01/19 05:57:33;;;;;;;13.43;7.85;;;;;;;;;;6154181;23;20080;-76
2022/01/19 06:00:00;;;;;;;14.82;8.88;;;;;;;;;;6154141;23;20338;-76
2022/01/19 06:02:26;;;;;;;22.33;10.95;;;;;;;;;;6154424;23;20004;-76
2022/01/19 06:04:52;;;;;;;13.95;8.48;;;;;;;;;;6155948;23;20001;-76
2022/01/19 06:10:06;;;;;;;37.80;20.45;;;;;;;;;;6155659;23;20020;-76
2022/01/19 06:12:36;;;;;;;33.08;16.92;;;;;;;;;;6156138;23;20500;-76
2022/01/19 06:15:02;;;;;;;17.08;10.35;;;;;;;;;;6155448;23;20002;-75
2022/01/19 06:17:28;;;;;;;14.38;7.40;;;;;;;;;;6155842;23;20009;-76
2022/01/19 06:19:54;;;;;;;18.65;8.63;;;;;;;;;;6129745;23;20033;-76
2022/01/19 06:22:21;;;;;;;11.80;6.60;;;;;;;;;;6155814;23;19998;-76
2022/01/19 06:24:48;;;;;;;10.70;3.75;;;;;;;;;;6156018;23;20325;-76
2022/01/19 06:27:17;;;;;;;12.50;5.63;;;;;;;;;;6155633;23;20053;-76
2022/01/19 06:29:43;;;;;;;9.07;4.15;;;;;;;;;;6156117;23;20056;-76
2022/01/19 06:32:10;;;;;;;12.02;7.50;;;;;;;;;;6155413;23;20005;-76
2022/01/19 06:34:36;;;;;;;12.55;6.60;;;;;;;;;;6155726;23;20425;-76
2022/01/19 06:37:11;;;;;;;10.80;6.20;;;;;;;;;;6155365;23;20064;-77
2022/01/19 06:39:37;;;;;;;14.43;6.07;;;;;;;;;;6158067;23;20036;-77
2022/01/19 06:42:03;;;;;;;13.55;7.85;;;;;;;;;;6185563;23;20001;-76
2022/01/19 06:44:30;;;;;;;17.95;10.75;;;;;;;;;;6185491;23;20028;-76
2022/01/19 06:46:56;;;;;;;16.25;8.13;;;;;;;;;;6185624;23;20012;-76
2022/01/19 06:49:24;;;;;;;24.58;15.85;;;;;;;;;;6185879;23;20009;-76
2022/01/19 06:51:50;;;;;;;15.10;7.20;;;;;;;;;;6185730;23;20062;-76
2022/01/19 06:54:16;;;;;;;31.50;15.00;;;;;;;;;;6185446;23;20008;-76
2022/01/19 06:56:42;;;;;;;25.90;14.82;;;;;;;;;;6185636;23;20012;-77
2022/01/19 06:59:09;;;;;;;37.72;22.85;;;;;;;;;;6185139;23;19997;-76
2022/01/19 07:01:35;;;;;;;23.40;9.88;;;;;;;;;;6185620;23;19997;-76
2022/01/19 07:04:02;;;;;;;13.05;5.82;;;;;;;;;;6185089;23;20008;-76
2022/01/19 07:06:28;;;;;;;19.00;8.73;;;;;;;;;;6185479;23;19997;-76
2022/01/19 07:08:54;;;;;;;14.63;6.00;;;;;;;;;;6185740;23;20001;-76
2022/01/19 07:11:20;;;;;;;22.08;11.18;;;;;;;;;;6184863;23;20455;-77
2022/01/19 07:13:46;;;;;;;16.95;9.52;;;;;;;;;;6183908;23;20090;-77
2022/01/19 07:18:58;;;;;;;10.88;3.92;;;;;;;;;;6185175;23;20028;-77
2022/01/19 07:21:24;;;;;;;23.27;12.55;;;;;;;;;;6185391;23;20072;-76
2022/01/19 07:23:50;;;;;;;17.55;8.05;;;;;;;;;;6185223;23;20063;-77
2022/01/19 07:26:16;;;;;;;12.27;5.38;;;;;;;;;;6185391;23;20001;-76
2022/01/19 07:28:42;;;;;;;11.43;5.55;;;;;;;;;;6185295;23;20381;-77
2022/01/19 07:31:08;;;;;;;10.43;4.63;;;;;;;;;;6185070;23;20064;-76
2022/01/19 07:33:34;;;;;;;20.00;11.13;;;;;;;;;;6185294;23;20032;-76
2022/01/19 07:36:00;;;;;;;8.20;4.38;;;;;;;;;;6184867;23;20001;-75
2022/01/19 07:38:26;;;;;;;18.48;7.18;;;;;;;;;;6185247;23;20004;-75
2022/01/19 07:40:53;;;;;;;18.52;10.98;;;;;;;;;;6184575;23;20336;-77
2022/01/19 07:43:19;;;;;;;17.73;8.65;;;;;;;;;;6184729;23;20087;-77
2022/01/19 07:45:45;;;;;;;13.45;5.47;;;;;;;;;;6184907;23;20032;-76
2022/01/19 07:48:11;;;;;;;12.13;6.32;;;;;;;;;;6184866;23;19997;-77
2022/01/19 07:50:38;;;;;;;11.18;6.10;;;;;;;;;;6184910;23;20103;-76
2022/01/19 07:53:04;;;;;;;14.48;7.15;;;;;;;;;;6184864;23;20001;-76
2022/01/19 07:55:31;;;;;;;14.75;6.45;;;;;;;;;;6184657;23;20001;-77
2022/01/19 07:57:57;;;;;;;14.48;4.85;;;;;;;;;;6184258;23;19997;-77
2022/01/19 08:00:23;;;;;;;9.68;3.88;;;;;;;;;;6184656;23;20028;-76
2022/01/19 08:02:49;;;;;;;12.95;6.45;;;;;;;;;;6184689;23;20436;-76
2022/01/19 08:05:21;;;;;;;14.70;6.32;;;;;;;;;;6158481;23;20337;-76
2022/01/19 08:07:47;;;;;;;13.95;7.72;;;;;;;;;;6184650;23;19997;-76
2022/01/19 08:10:13;;;;;;;18.45;8.77;;;;;;;;;;6184081;23;20001;-77
2022/01/19 08:12:39;;;;;;;20.20;8.15;;;;;;;;;;6185140;23;20077;-75
2022/01/19 08:15:06;;;;;;;12.90;5.15;;;;;;;;;;6184283;23;20060;-77
2022/01/19 08:17:33;;;;;;;17.48;9.45;;;;;;;;;;6185202;23;20036;-77
2022/01/19 08:20:00;;;;;;;15.02;5.80;;;;;;;;;;6184278;23;20020;-78
2022/01/19 08:22:26;;;;;;;15.05;7.35;;;;;;;;;;6184496;23;20020;-77
2022/01/19 08:24:52;;;;;;;13.52;5.32;;;;;;;;;;6184566;23;20436;-77
2022/01/19 08:27:18;;;;;;;7.47;3.28;;;;;;;;;;6184130;23;20123;-77
2022/01/19 08:29:44;;;;;;;7.95;4.15;;;;;;;;;;6184861;23;20001;-78
2022/01/19 08:32:11;;;;;;;17.20;7.32;;;;;;;;;;6184692;23;20011;-77
2022/01/19 08:34:39;;;;;;;13.00;4.43;;;;;;;;;;6184433;23;20004;-78
2022/01/19 08:37:08;;;;;;;11.02;5.25;;;;;;;;;;6184188;23;20025;-78
2022/01/19 08:39:34;;;;;;;11.25;5.78;;;;;;;;;;6184588;23;20005;-77
2022/01/19 08:42:02;;;;;;;9.43;4.10;;;;;;;;;;6184104;23;20009;-77
2022/01/19 08:44:31;;;;;;;7.55;3.70;;;;;;;;;;6184393;23;19997;-77
2022/01/19 08:46:57;;;;;;;12.73;6.10;;;;;;;;;;6184838;23;19997;-77
2022/01/19 08:49:23;;;;;;;8.93;4.40;;;;;;;;;;6183961;23;20032;-77
2022/01/19 08:51:49;;;;;;;10.75;4.68;;;;;;;;;;6184424;23;20068;-78
2022/01/19 08:54:15;;;;;;;14.68;6.85;;;;;;;;;;6184028;23;20005;-77
2022/01/19 08:56:41;;;;;;;11.10;5.32;;;;;;;;;;6184534;23;20412;-77
2022/01/19 08:59:07;;;;;;;9.15;4.43;;;;;;;;;;6184466;23;20006;-77
2022/01/19 09:01:33;;;;;;;17.10;8.32;;;;;;;;;;6184569;23;20023;-78
2022/01/19 09:04:00;;;;;;;12.48;6.72;;;;;;;;;;6184194;23;20009;-76
2022/01/19 09:06:26;;;;;;;24.77;11.63;;;;;;;;;;6184078;23;20001;-76
2022/01/19 09:08:52;;;;;;;16.30;7.57;;;;;;;;;;6184186;23;20025;-76
2022/01/19 09:11:18;;;;;;;19.13;8.55;;;;;;;;;;6183787;23;20033;-76
2022/01/19 09:13:49;;;;;;;15.82;10.02;;;;;;;;;;6184328;23;20033;-77
2022/01/19 09:16:15;;;;;;;7.63;3.70;;;;;;;;;;6183912;23;20021;-77
2022/01/19 09:18:41;;;;;;;9.70;4.72;;;;;;;;;;6184531;23;20009;-77
2022/01/19 09:21:07;;;;;;;14.23;9.65;;;;;;;;;;6184328;23;20059;-76
2022/01/19 09:23:35;;;;;;;9.32;5.93;;;;;;;;;;6183854;23;20083;-78
2022/01/19 09:26:02;;;;;;;7.93;4.15;;;;;;;;;;6184228;23;20075;-77
2022/01/19 09:28:28;;;;;;;15.73;7.82;;;;;;;;;;6184042;23;19997;-77
2022/01/19 09:30:57;;;;;;;14.80;7.75;;;;;;;;;;6158378;23;20075;-77
2022/01/19 09:33:24;;;;;;;11.60;5.10;;;;;;;;;;6184217;23;20076;-77
2022/01/19 09:38:18;;;;;;;12.55;7.82;;;;;;;;;;6195252;23;20012;-77
2022/01/19 09:40:44;;;;;;;16.15;9.60;;;;;;;;;;6185885;23;20021;-77
2022/01/19 09:43:10;;;;;;;16.95;9.40;;;;;;;;;;6185905;23;20137;-76
2022/01/19 09:45:36;;;;;;;15.57;10.48;;;;;;;;;;6186261;23;20055;-76
2022/01/19 09:48:06;;;;;;;16.02;10.00;;;;;;;;;;6185832;23;20001;-76
2022/01/19 09:50:33;;;;;;;12.90;6.85;;;;;;;;;;6186044;23;20029;-77
2022/01/19 09:52:59;;;;;;;13.75;9.20;;;;;;;;;;6185896;23;20005;-77
2022/01/19 09:55:28;;;;;;;11.98;6.05;;;;;;;;;;6185867;23;20314;-77
2022/01/19 09:57:57;;;;;;;12.20;5.97;;;;;;;;;;6186205;23;20001;-77
2022/01/19 10:00:23;;;;;;;14.57;7.60;;;;;;;;;;6185445;23;20016;-77
2022/01/19 10:03:07;;;;;;;9.23;4.78;;;;;;;;;;6185762;23;20064;-77
2022/01/19 10:05:34;;;;;;;11.52;7.72;;;;;;;;;;6185715;23;20004;-77
2022/01/19 10:08:00;;;;;;;17.02;8.40;;;;;;;;;;6185692;23;20001;-77
2022/01/19 10:10:29;;;;;;;10.43;6.85;;;;;;;;;;6185751;23;20021;-77
2022/01/19 10:18:28;;;;;;;10.60;5.63;;;;;;;;;;6185376;23;20016;-78
2022/01/19 10:21:15;;;;;;;14.52;10.02;;;;;;;;;;6185877;23;20025;-77
2022/01/19 10:23:44;;;;;;;13.52;6.25;;;;;;;;;;6185639;23;20056;-77
2022/01/19 10:26:13;;;;;;;10.98;5.60;;;;;;;;;;6185265;23;20001;-77
2022/01/19 10:28:57;;;;;;;17.02;8.98;;;;;;;;;;6185608;23;20005;-76
2022/01/19 10:31:24;;;;;;;14.30;6.60;;;;;;;;;;6186197;23;20005;-77
2022/01/19 10:34:08;;;;;;;14.15;7.03;;;;;;;;;;6185278;23;20008;-77
2022/01/19 10:36:51;;;;;;;13.00;8.23;;;;;;;;;;6185500;23;20001;-77
2022/01/19 10:39:18;;;;;;;15.18;8.15;;;;;;;;;;6185796;23;20001;-77
2022/01/19 10:42:05;;;;;;;7.85;3.03;;;;;;;;;;6185399;23;20023;-78
2022/01/19 10:44:34;;;;;;;6.80;3.95;;;;;;;;;;6185409;23;19997;-78
2022/01/19 10:47:01;;;;;;;9.30;4.50;;;;;;;;;;6185223;23;20491;-77
2022/01/19 10:49:27;;;;;;;16.75;8.57;;;;;;;;;;6184880;23;20465;-77
2022/01/19 10:51:58;;;;;;;14.10;7.50;;;;;;;;;;6185358;23;20005;-77
2022/01/19 10:54:31;;;;;;;11.00;6.57;;;;;;;;;;6184944;23;20004;-77
2022/01/19 10:56:58;;;;;;;8.88;3.42;;;;;;;;;;6185117;23;20008;-77
2022/01/19 10:59:29;;;;;;;9.15;3.65;;;;;;;;;;6185083;23;20030;-77
2022/01/19 11:01:56;;;;;;;10.98;6.18;;;;;;;;;;6185460;23;20052;-77
2022/01/19 11:04:42;;;;;;;7.75;3.75;;;;;;;;;;6185506;23;20005;-76
2022/01/19 11:07:11;;;;;;;7.68;3.83;;;;;;;;;;6185536;23;20000;-78
2022/01/19 11:09:45;;;;;;;23.98;10.85;;;;;;;;;;6185111;23;20001;-77
2022/01/19 11:12:14;;;;;;;;;;;;;;;;;;6186073;23;20131;-76
2022/01/19 11:14:40;;;;;;;6.90;3.53;;;;;;;;;;6185285;23;19981;-77
2022/01/19 11:17:07;;;;;;;5.53;2.53;;;;;;;;;;6185414;23;20329;-77
2022/01/19 11:19:37;;;;;;;20.85;9.07;;;;;;;;;;6185208;23;20001;-77
2022/01/19 11:22:08;;;;;;;7.65;4.15;;;;;;;;;;6184883;23;20001;-76
2022/01/19 11:24:48;;;;;;;10.75;5.82;;;;;;;;;;6184844;23;20013;-76
2022/01/19 11:27:14;;;;;;;8.60;4.38;;;;;;;;;;6184776;23;20009;-76
2022/01/19 11:29:41;;;;;;;8.10;3.47;;;;;;;;;;6158395;23;20040;-76
2022/01/19 11:32:14;;;;;;;7.18;3.10;;;;;;;;;;6185111;23;20489;-77
2022/01/19 11:34:43;;;;;;;16.10;6.60;;;;;;;;;;6184893;23;20023;-76
2022/01/19 11:37:09;;;;;;;12.73;7.20;;;;;;;;;;6184921;23;20425;-77
2022/01/19 11:39:35;;;;;;;14.93;7.38;;;;;;;;;;6185108;23;20068;-77
2022/01/19 11:42:04;;;;;;;8.52;3.88;;;;;;;;;;6184978;23;20008;-76
2022/01/19 11:44:51;;;;;;;15.18;7.05;;;;;;;;;;6184580;23;20005;-76
2022/01/19 11:47:21;;;;;;;10.68;5.82;;;;;;;;;;6157909;23;20012;-77
2022/01/19 11:49:58;;;;;;;15.35;6.03;;;;;;;;;;6185126;23;20011;-76
2022/01/19 11:52:28;;;;;;;7.55;2.95;;;;;;;;;;6185148;23;20005;-77
2022/01/19 11:55:10;;;;;;;6.97;2.70;;;;;;;;;;6184200;23;20013;-77
2022/01/19 11:57:40;;;;;;;7.13;3.50;;;;;;;;;;6184721;23;20121;-76
2022/01/19 12:00:10;;;;;;;9.88;3.75;;;;;;;;;;6184485;23;20013;-77
2022/01/19 12:02:41;;;;;;;7.63;3.90;;;;;;;;;;6184557;23;20024;-77
2022/01/19 12:05:10;;;;;;;11.27;5.00;;;;;;;;;;6184959;23;20051;-76
2022/01/19 12:07:52;;;;;;;10.25;3.25;;;;;;;;;;6184432;23;20076;-77
2022/01/19 12:10:21;;;;;;;13.48;3.83;;;;;;;;;;6184697;23;20001;-77
2022/01/19 12:13:09;;;;;;;11.65;5.47;;;;;;;;;;6184593;23;20083;-76
2022/01/19 12:15:59;;;;;;;12.05;5.28;;;;;;;;;;6184469;23;20314;-76
2022/01/19 12:18:39;;;;;;;15.88;5.82;;;;;;;;;;6184597;23;20000;-76
2022/01/19 12:21:05;;;;;;;11.77;4.85;;;;;;;;;;6158270;23;20037;-76
2022/01/19 12:23:32;;;;;;;13.80;7.10;;;;;;;;;;6184582;23;20008;-77
2022/01/19 12:26:02;;;;;;;10.43;4.28;;;;;;;;;;6184763;23;20033;-76
2022/01/19 12:28:39;;;;;;;11.32;4.25;;;;;;;;;;6184287;23;19997;-76
2022/01/19 12:31:23;;;;;;;11.85;3.80;;;;;;;;;;6184487;23;20432;-76
2022/01/19 12:34:08;;;;;;;12.30;7.82;;;;;;;;;;6184764;23;20005;-76
2022/01/19 12:36:40;;;;;;;11.73;7.43;;;;;;;;;;6184971;23;20009;-76
2022/01/19 12:39:36;;;;;;;10.55;4.40;;;;;;;;;;6184437;23;20001;-76
2022/01/19 12:42:03;;;;;;;17.80;7.22;;;;;;;;;;6165628;23;20084;-76
2022/01/19 12:44:36;;;;;;;7.70;3.17;;;;;;;;;;6184081;23;20012;-76
2022/01/19 12:47:20;;;;;;;11.60;4.70;;;;;;;;;;6184370;23;20448;-77
2022/01/19 12:49:47;;;;;;;9.68;5.65;;;;;;;;;;6184588;23;20025;-76
2022/01/19 12:52:16;;;;;;;8.43;3.78;;;;;;;;;;6184063;23;20068;-76
2022/01/19 12:54:42;;;;;;;8.80;4.50;;;;;;;;;;6184268;23;20009;-76
2022/01/19 12:57:13;;;;;;;7.13;3.33;;;;;;;;;;6184159;23;20067;-77
2022/01/19 12:59:39;;;;;;;7.05;4.20;;;;;;;;;;6184468;23;20008;-76
2022/01/19 13:02:05;;;;;;;7.38;3.40;;;;;;;;;;6184440;23;20006;-77
2022/01/19 13:04:36;;;;;;;8.73;3.78;;;;;;;;;;6184557;23;20009;-77
2022/01/19 13:07:20;;;;;;;10.15;5.68;;;;;;;;;;6183884;23;20005;-76
2022/01/19 13:10:10;;;;;;;10.07;4.60;;;;;;;;;;6184541;23;20337;-77
2022/01/19 13:12:44;;;;;;;7.85;4.15;;;;;;;;;;6183806;23;20001;-77
2022/01/19 13:15:10;;;;;;;8.57;3.85;;;;;;;;;;6159419;23;20008;-76
2022/01/19 13:17:44;;;;;;;7.78;4.22;;;;;;;;;;6184015;23;20028;-76
2022/01/19 13:20:28;;;;;;;13.68;6.47;;;;;;;;;;6184282;23;20015;-77
2022/01/19 13:22:58;;;;;;;7.93;4.30;;;;;;;;;;6184767;23;20004;-76
2022/01/19 13:25:26;;;;;;;11.70;6.32;;;;;;;;;;6182112;23;20329;-77
2022/01/19 13:28:02;;;;;;;6.78;3.78;;;;;;;;;;6184469;23;20004;-76
2022/01/19 13:30:32;;;;;;;10.25;4.78;;;;;;;;;;6184040;23;20088;-76
2022/01/19 13:32:59;;;;;;;15.75;6.80;;;;;;;;;;6183936;23;20009;-77
2022/01/19 13:35:27;;;;;;;15.32;7.80;;;;;;;;;;6158100;23;20803;-77
2022/01/19 13:37:55;;;;;;;8.43;3.60;;;;;;;;;;6183379;23;20430;-76
2022/01/19 13:40:30;;;;;;;12.15;6.53;;;;;;;;;;6183654;23;20013;-77
2022/01/19 13:42:58;;;;;;;16.08;8.38;;;;;;;;;;6183964;23;20081;-76
2022/01/19 13:50:42;;;;;;;6.87;4.00;;;;;;;;;;6186650;23;20103;-76
2022/01/19 13:53:09;;;;;;;13.52;7.05;;;;;;;;;;6184460;23;20341;-76
2022/01/19 13:55:36;;;;;;;15.23;5.35;;;;;;;;;;6157346;23;20385;-77
2022/01/19 13:58:09;;;;;;;9.52;4.43;;;;;;;;;;6184133;23;20072;-76
2022/01/19 14:00:40;;;;;;;9.98;3.92;;;;;;;;;;6184209;23;20008;-77
2022/01/19 14:03:07;;;;;;;10.52;5.68;;;;;;;;;;6184209;23;20075;-76
2022/01/19 14:05:36;;;;;;;8.30;3.60;;;;;;;;;;6184239;23;20001;-77
2022/01/19 14:08:02;;;;;;;9.38;3.67;;;;;;;;;;6184191;23;20001;-76
2022/01/19 14:10:49;;;;;;;11.20;4.10;;;;;;;;;;6184011;23;19997;-77
2022/01/19 14:13:28;;;;;;;11.75;6.03;;;;;;;;;;6183796;23;20001;-76
2022/01/19 14:15:55;;;;;;;14.00;7.00;;;;;;;;;;6183791;23;20013;-76
2022/01/19 14:18:21;;;;;;;25.95;13.48;;;;;;;;;;6184231;23;19997;-76
2022/01/19 14:21:04;;;;;;;33.42;18.98;;;;;;;;;;6184136;23;20463;-76
2022/01/19 14:23:30;;;;;;;23.13;13.13;;;;;;;;;;6184959;23;20329;-76
2022/01/19 14:26:26;;;;;;;10.00;4.60;;;;;;;;;;6185888;23;20001;-77
2022/01/19 14:29:11;;;;;;;12.27;5.80;;;;;;;;;;6167255;23;20318;-76
2022/01/19 14:31:37;;;;;;;;;;;;;;;;;;6186714;23;20460;-76
2022/01/19 14:34:03;;;;;;;34.50;20.42;;;;;;;;;;6185666;23;19971;-77
2022/01/19 14:36:29;;;;;;;35.40;21.73;;;;;;;;;;6159178;23;20005;-76
2022/01/19 14:38:57;;;;;;;21.75;15.98;;;;;;;;;;6185975;23;19997;-76
2022/01/19 14:41:28;;;;;;;47.65;24.35;;;;;;;;;;6185136;23;20024;-76
2022/01/19 14:44:07;;;;;;;33.08;19.20;;;;;;;;;;6185529;23;20008;-77
2022/01/19 14:46:46;;;;;;;27.58;17.30;;;;;;;;;;6185706;23;20325;-76
2022/01/19 14:49:12;;;;;;;26.73;13.73;;;;;;;;;;6185587;23;20002;-76
2022/01/19 14:51:40;;;;;;;29.75;16.40;;;;;;;;;;6185760;23;20013;-77
2022/01/19 14:54:08;;;;;;;30.08;17.33;;;;;;;;;;6185646;23;20445;-76
2022/01/19 14:56:35;;;;;;;36.85;25.15;;;;;;;;;;6185479;23;20369;-76
2022/01/19 14:59:03;;;;;;;33.60;21.15;;;;;;;;;;6185521;23;19997;-76
2022/01/19 15:01:30;;;;;;;29.05;16.80;;;;;;;;;;6184710;23;20154;-76
2022/01/19 15:03:56;;;;;;;24.08;15.50;;;;;;;;;;6185497;23;20001;-77
2022/01/19 15:06:25;;;;;;;34.97;22.85;;;;;;;;;;6185472;23;20429;-76
2022/01/19 15:08:51;;;;;;;28.50;16.75;;;;;;;;;;6185060;23;20314;-77
2022/01/19 15:11:18;;;;;;;23.70;13.63;;;;;;;;;;6158989;23;20060;-76
2022/01/19 15:13:45;;;;;;;17.20;11.38;;;;;;;;;;6185354;23;20005;-76
2022/01/19 15:16:11;;;;;;;26.45;16.10;;;;;;;;;;6185325;23;20013;-76
2022/01/19 15:18:37;;;;;;;46.63;29.52;;;;;;;;;;6185460;23;20052;-76
2022/01/19 15:21:03;;;;;;;40.80;26.73;;;;;;;;;;6185414;23;20005;-76
2022/01/19 15:23:29;;;;;;;47.70;28.92;;;;;;;;;;6185003;23;20360;-76
2022/01/19 15:25:57;;;;;;;26.27;17.10;;;;;;;;;;6184874;23;20002;-76
2022/01/19 15:28:24;;;;;;;15.15;8.32;;;;;;;;;;6185198;23;20369;-76
2022/01/19 15:30:51;;;;;;;12.75;7.35;;;;;;;;;;6185040;23;20415;-77
2022/01/19 15:33:20;;;;;;;21.90;12.50;;;;;;;;;;6185436;23;20025;-76
2022/01/19 15:35:49;;;;;;;36.05;24.23;;;;;;;;;;6184138;23;20009;-76
2022/01/19 15:38:15;;;;;;;44.05;28.90;;;;;;;;;;6185048;23;20012;-77
2022/01/19 15:40:42;;;;;;;51.72;32.60;;;;;;;;;;6184579;23;20388;-77
2022/01/19 15:43:09;;;;;;;75.97;44.28;;;;;;;;;;6185134;23;20440;-77
2022/01/19 15:45:36;;;;;;;78.85;43.97;;;;;;;;;;6185075;23;20432;-77
2022/01/19 15:48:03;;;;;;;88.28;53.85;;;;;;;;;;6184974;23;20035;-77
2022/01/19 15:50:29;;;;;;;139.27;89.38;;;;;;;;;;6185347;23;20079;-76
2022/01/19 15:52:56;;;;;;;118.55;76.43;;;;;;;;;;6184608;23;20027;-76
2022/01/19 15:55:23;;;;;;;130.68;87.75;;;;;;;;;;6184909;23;20121;-77
2022/01/19 15:57:49;;;;;;;101.72;66.13;;;;;;;;;;6184596;23;20016;-76
2022/01/19 16:00:15;;;;;;;98.40;61.70;;;;;;;;;;6184813;23;20001;-76
2022/01/19 16:02:41;;;;;;;88.05;57.00;;;;;;;;;;6184717;23;20001;-76
2022/01/19 16:05:07;;;;;;;103.60;69.47;;;;;;;;;;6184983;23;20324;-77
2022/01/19 16:07:34;;;;;;;64.22;44.70;;;;;;;;;;6184735;23;20444;-76
2022/01/19 16:10:01;;;;;;;47.08;32.15;;;;;;;;;;6184515;23;20016;-76
2022/01/19 16:12:27;;;;;;;39.80;28.10;;;;;;;;;;6185166;23;20005;-77
2022/01/19 16:14:53;;;;;;;54.13;35.10;;;;;;;;;;6184175;23;20016;-76
2022/01/19 16:17:20;;;;;;;252.45;153.48;;;;;;;;;;6184760;23;20012;-76
2022/01/19 16:19:46;;;;;;;336.02;208.13;;;;;;;;;;6184558;23;20001;-76